createdAt,value
2023-04-05T00:00:42.679Z,90.26
2023-04-05T00:01:42.528Z,90.47
2023-04-05T00:02:43.148Z,91.20
2023-04-05T00:03:42.606Z,90.78
2023-04-05T00:04:42.525Z,90.83
2023-04-05T00:05:42.432Z,90.61
2023-04-05T00:06:42.458Z,90.20
2023-04-05T00:07:43.021Z,90.30
2023-04-05T00:08:42.458Z,91.03
2023-04-05T00:09:42.396Z,90.93
2023-04-05T00:10:43.275Z,90.87
2023-04-05T00:11:42.452Z,90.23
2023-04-05T00:12:42.489Z,90.34
2023-04-05T00:13:42.397Z,90.76
2023-04-05T00:14:42.423Z,91.81
2023-04-05T00:15:42.393Z,90.97
2023-04-05T00:16:42.518Z,90.55
2023-04-05T00:17:42.375Z,90.87
2023-04-05T00:18:42.345Z,91.08
2023-04-05T00:19:42.364Z,90.83
2023-04-05T00:20:42.838Z,90.20
2023-04-05T00:21:43.137Z,89.67
2023-04-05T00:22:42.338Z,90.45
2023-04-05T00:23:42.315Z,89.72
2023-04-05T00:24:42.296Z,90.87
2023-04-05T00:25:42.339Z,90.66
2023-04-05T00:26:42.992Z,90.45
2023-04-05T00:27:42.318Z,90.45
2023-04-05T00:28:42.270Z,90.45
2023-04-05T00:29:42.258Z,90.45
2023-04-05T00:30:43.381Z,89.82
2023-04-05T00:31:42.306Z,90.70
2023-04-05T00:32:42.277Z,91.75
2023-04-05T00:33:42.226Z,90.97
2023-04-05T00:34:42.200Z,91.22
2023-04-05T00:35:43.088Z,91.75
2023-04-05T00:36:42.222Z,92.38
2023-04-05T00:37:42.220Z,91.96
2023-04-05T00:38:43.160Z,92.38
2023-04-05T00:39:42.195Z,92.27
2023-04-05T00:40:42.398Z,92.58
2023-04-05T00:41:42.174Z,92.94
2023-04-05T00:42:42.191Z,92.38
2023-04-05T00:43:42.230Z,92.52
2023-04-05T00:44:42.184Z,92.83
2023-04-05T00:45:42.188Z,92.83
2023-04-05T00:46:42.245Z,92.88
2023-04-05T00:47:42.699Z,92.83
2023-04-05T00:48:42.122Z,93.09
2023-04-05T00:49:43.124Z,92.88
2023-04-05T00:50:42.315Z,93.93
2023-04-05T00:51:42.157Z,93.51
2023-04-05T00:52:43.669Z,93.82
2023-04-05T00:53:42.084Z,93.72
2023-04-05T00:54:42.170Z,93.44
2023-04-05T00:55:42.208Z,93.93
2023-04-05T00:56:42.129Z,93.55
2023-04-05T00:57:42.063Z,93.87
2023-04-05T00:58:42.327Z,93.87
2023-04-05T00:59:42.077Z,94.08
2023-04-05T01:00:42.830Z,94.29
2023-04-05T01:01:42.126Z,94.29
2023-04-05T01:02:42.024Z,94.18
2023-04-05T01:03:42.561Z,94.08
2023-04-05T01:04:49.398Z,93.87
2023-04-05T01:05:42.118Z,94.96
2023-04-05T01:06:41.983Z,94.23
2023-04-05T01:07:42.066Z,93.91
2023-04-05T01:08:42.004Z,94.01
2023-04-05T01:09:43.231Z,93.80
2023-04-05T01:10:43.197Z,93.91
2023-04-05T01:11:41.971Z,93.80
2023-04-05T01:12:41.966Z,93.59
2023-04-05T01:13:41.978Z,93.59
2023-04-05T01:14:42.289Z,94.01
2023-04-05T01:15:41.996Z,94.01
2023-04-05T01:16:41.923Z,93.85
2023-04-05T01:17:41.943Z,93.59
2023-04-05T01:18:41.948Z,94.12
2023-04-05T01:19:41.924Z,94.12
2023-04-05T01:20:42.920Z,94.12
2023-04-05T01:21:41.901Z,93.91
2023-04-05T01:22:41.888Z,93.59
2023-04-05T01:23:41.894Z,93.80
2023-04-05T01:24:41.887Z,94.01
2023-04-05T01:25:41.965Z,92.96
2023-04-05T01:26:41.890Z,93.11
2023-04-05T01:27:41.911Z,93.07
2023-04-05T01:28:41.934Z,92.96
2023-04-05T01:29:41.828Z,93.95
2023-04-05T01:30:43.025Z,94.33
2023-04-05T01:31:41.935Z,95.59
2023-04-05T01:32:42.004Z,95.17
2023-04-05T01:33:42.672Z,95.48
2023-04-05T01:34:41.843Z,95.70
2023-04-05T01:35:41.900Z,95.28
2023-04-05T01:36:41.786Z,95.32
2023-04-05T01:37:42.017Z,94.96
2023-04-05T01:38:41.906Z,95.17
2023-04-05T01:39:41.796Z,95.64
2023-04-05T01:40:42.013Z,96.05
2023-04-05T01:41:41.743Z,95.64
2023-04-05T01:42:43.241Z,95.42
2023-04-05T01:43:41.729Z,95.64
2023-04-05T01:44:41.835Z,95.80
2023-04-05T01:45:41.727Z,95.74
2023-04-05T01:46:41.792Z,95.84
2023-04-05T01:47:41.741Z,96.05
2023-04-05T01:48:41.701Z,95.74
2023-04-05T01:49:41.709Z,96.16
2023-04-05T01:50:42.123Z,95.95
2023-04-05T01:51:41.718Z,95.95
2023-04-05T01:52:41.720Z,96.16
2023-04-05T01:53:41.721Z,95.95
2023-04-05T01:54:41.626Z,95.74
2023-04-05T01:55:41.639Z,95.74
2023-04-05T01:56:41.648Z,95.95
2023-04-05T01:57:41.632Z,96.10
2023-04-05T01:58:41.633Z,96.16
2023-04-05T01:59:41.664Z,95.64
2023-04-05T02:00:41.772Z,95.95
2023-04-05T02:01:41.635Z,96.20
2023-04-05T02:02:41.712Z,96.58
2023-04-05T02:03:42.584Z,96.89
2023-04-05T02:04:41.683Z,96.69
2023-04-05T02:05:41.871Z,96.51
2023-04-05T02:06:42.439Z,96.89
2023-04-05T02:07:41.595Z,96.79
2023-04-05T02:08:41.545Z,95.89
2023-04-05T02:09:41.599Z,95.78
2023-04-05T02:10:42.054Z,96.31
2023-04-05T02:11:41.552Z,96.94
2023-04-05T02:12:41.557Z,96.41
2023-04-05T02:13:41.562Z,96.62
2023-04-05T02:14:41.563Z,96.62
2023-04-05T02:15:41.512Z,96.47
2023-04-05T02:16:41.676Z,96.83
2023-04-05T02:17:41.537Z,96.62
2023-04-05T02:18:41.570Z,96.20
2023-04-05T02:19:41.580Z,95.47
2023-04-05T02:20:41.709Z,96.20
2023-04-05T02:21:41.452Z,96.51
2023-04-05T02:22:41.524Z,96.94
2023-04-05T02:23:41.554Z,96.83
2023-04-05T02:24:41.438Z,96.10
2023-04-05T02:25:41.486Z,96.25
2023-04-05T02:26:41.463Z,96.56
2023-04-05T02:27:41.473Z,96.88
2023-04-05T02:28:41.565Z,96.20
2023-04-05T02:29:41.502Z,96.41
2023-04-05T02:30:42.752Z,96.14
2023-04-05T02:31:41.638Z,96.88
2023-04-05T02:32:41.399Z,96.88
2023-04-05T02:33:42.920Z,97.30
2023-04-05T02:34:41.470Z,96.94
2023-04-05T02:35:41.402Z,96.98
2023-04-05T02:36:41.365Z,96.56
2023-04-05T02:37:41.369Z,96.88
2023-04-05T02:38:41.496Z,96.77
2023-04-05T02:39:41.380Z,96.77
2023-04-05T02:40:41.504Z,96.77
2023-04-05T02:41:41.344Z,96.67
2023-04-05T02:42:41.317Z,96.51
2023-04-05T02:43:41.299Z,96.67
2023-04-05T02:44:41.363Z,96.45
2023-04-05T02:45:41.378Z,96.77
2023-04-05T02:46:41.479Z,96.67
2023-04-05T02:47:41.319Z,96.81
2023-04-05T02:48:41.355Z,97.03
2023-04-05T02:49:41.285Z,96.39
2023-04-05T02:50:41.647Z,96.92
2023-04-05T02:51:41.306Z,96.65
2023-04-05T02:52:41.290Z,96.92
2023-04-05T02:53:41.215Z,97.03
2023-04-05T02:54:41.252Z,97.07
2023-04-05T02:55:42.104Z,96.81
2023-04-05T02:56:41.264Z,96.71
2023-04-05T02:57:41.302Z,97.49
2023-04-05T02:58:41.199Z,97.28
2023-04-05T02:59:41.193Z,97.60
2023-04-05T03:00:41.433Z,97.45
2023-04-05T03:01:41.488Z,97.17
2023-04-05T03:02:41.249Z,97.28
2023-04-05T03:03:41.213Z,96.44
2023-04-05T03:04:41.161Z,96.86
2023-04-05T03:05:41.397Z,97.49
2023-04-05T03:06:41.982Z,97.71
2023-04-05T03:07:42.195Z,97.11
2023-04-05T03:08:41.181Z,96.86
2023-04-05T03:09:41.335Z,97.22
2023-04-05T03:10:41.127Z,97.71
2023-04-05T03:11:41.112Z,97.39
2023-04-05T03:12:41.099Z,97.49
2023-04-05T03:13:41.184Z,96.44
2023-04-05T03:14:41.157Z,97.17
2023-04-05T03:15:41.619Z,97.49
2023-04-05T03:16:41.093Z,97.11
2023-04-05T03:17:41.244Z,97.22
2023-04-05T03:18:41.156Z,97.53
2023-04-05T03:19:41.990Z,97.64
2023-04-05T03:20:41.078Z,97.71
2023-04-05T03:21:41.064Z,97.81
2023-04-05T03:22:41.025Z,99.02
2023-04-05T03:23:41.054Z,98.29
2023-04-05T03:24:41.441Z,98.08
2023-04-05T03:25:41.342Z,97.76
2023-04-05T03:26:41.013Z,97.34
2023-04-05T03:27:41.038Z,97.66
2023-04-05T03:28:40.992Z,96.86
2023-04-05T03:29:41.182Z,96.65
2023-04-05T03:30:40.977Z,96.75
2023-04-05T03:31:41.128Z,97.39
2023-04-05T03:32:40.991Z,97.07
2023-04-05T03:33:40.977Z,96.97
2023-04-05T03:34:40.973Z,96.86
2023-04-05T03:35:41.132Z,96.69
2023-04-05T03:36:40.937Z,97.11
2023-04-05T03:37:40.930Z,97.33
2023-04-05T03:38:42.546Z,97.75
2023-04-05T03:39:41.912Z,97.22
2023-04-05T03:40:40.934Z,97.64
2023-04-05T03:41:40.876Z,97.53
2023-04-05T03:42:41.133Z,97.33
2023-04-05T03:43:40.858Z,97.47
2023-04-05T03:44:40.871Z,98.07
2023-04-05T03:45:41.116Z,98.17
2023-04-05T03:46:41.771Z,98.38
2023-04-05T04:02:51.247Z,98.72
2023-04-05T04:03:51.210Z,99.25
2023-04-05T04:04:51.261Z,99.10
2023-04-05T04:05:51.218Z,99.73
2023-04-05T04:06:52.446Z,99.63
2023-04-05T04:07:52.315Z,99.73
2023-04-05T04:08:52.301Z,99.79
2023-04-05T04:09:52.291Z,99.31
2023-04-05T04:10:52.327Z,99.41
2023-04-05T04:11:52.342Z,99.21
2023-04-05T04:12:52.301Z,99.48
2023-04-05T04:13:52.330Z,99.31
2023-04-05T04:14:52.252Z,99.16
2023-04-05T04:15:52.367Z,99.27
2023-04-05T04:16:53.074Z,98.79
2023-04-05T04:17:52.318Z,99.21
2023-04-05T04:18:52.258Z,99.16
2023-04-05T04:19:52.351Z,99.16
2023-04-05T04:20:52.425Z,99.27
2023-04-05T04:21:52.274Z,99.27
2023-04-05T04:22:52.278Z,99.16
2023-04-05T04:23:52.259Z,98.57
2023-04-05T04:24:52.234Z,98.36
2023-04-05T04:25:52.237Z,98.25
2023-04-05T04:26:52.312Z,98.47
2023-04-05T04:27:52.217Z,98.47
2023-04-05T04:28:52.177Z,98.61
2023-04-05T04:29:52.187Z,98.19
2023-04-05T04:30:52.236Z,98.09
2023-04-05T04:31:52.171Z,98.36
2023-04-05T04:32:52.439Z,99.15
2023-04-05T04:33:52.155Z,99.04
2023-04-05T04:34:52.144Z,99.73
2023-04-05T04:35:52.158Z,99.52
2023-04-05T04:36:52.100Z,99.52
2023-04-05T04:37:52.168Z,99.31
2023-04-05T04:38:52.799Z,99.31
2023-04-05T04:39:52.171Z,99.10
2023-04-05T04:40:52.133Z,98.89
2023-04-05T04:41:52.096Z,99.31
2023-04-05T04:42:52.078Z,98.95
2023-04-05T04:43:52.127Z,98.99
2023-04-05T04:44:52.096Z,98.25
2023-04-05T04:45:52.121Z,98.36
2023-04-05T04:46:52.058Z,98.43
2023-04-05T04:47:52.211Z,98.63
2023-04-05T04:48:52.048Z,99.16
2023-04-05T04:49:52.017Z,98.95
2023-04-05T04:50:52.053Z,98.43
2023-04-05T04:51:52.044Z,98.36
2023-04-05T04:52:52.039Z,98.36
2023-04-05T04:53:52.808Z,98.47
2023-04-05T04:54:51.991Z,97.89
2023-04-05T04:55:51.991Z,98.11
2023-04-05T04:56:51.966Z,98.05
2023-04-05T04:57:51.986Z,97.83
2023-04-05T04:58:52.011Z,98.47
2023-04-05T04:59:51.994Z,98.15
2023-04-05T05:00:51.995Z,98.15
2023-04-05T05:01:52.057Z,98.43
2023-04-05T05:02:51.969Z,98.47
2023-04-05T05:03:52.015Z,98.43
2023-04-05T05:04:51.927Z,98.32
2023-04-05T05:05:51.889Z,98.00
2023-04-05T05:06:51.895Z,97.89
2023-04-05T05:07:51.878Z,97.58
2023-04-05T05:08:51.885Z,97.63
2023-04-05T05:09:52.844Z,97.73
2023-04-05T05:10:51.909Z,97.47
2023-04-05T05:11:51.860Z,97.37
2023-04-05T05:12:51.877Z,97.58
2023-04-05T05:13:53.470Z,97.69
2023-04-05T05:14:52.834Z,97.69
2023-04-05T05:15:51.985Z,97.47
2023-04-05T05:16:52.817Z,97.47
2023-04-05T05:17:52.048Z,98.07
2023-04-05T05:18:51.809Z,97.53
2023-04-05T05:19:54.653Z,97.47
2023-04-05T05:20:51.831Z,97.47
2023-04-05T05:21:54.527Z,97.33
2023-04-05T05:22:51.849Z,97.37
2023-04-05T05:23:51.747Z,97.75
2023-04-05T05:24:51.816Z,97.33
2023-04-05T05:25:51.809Z,96.53
2023-04-05T05:26:51.931Z,97.11
2023-04-05T05:27:51.764Z,96.91
2023-04-05T05:28:53.210Z,96.59
2023-04-05T05:29:51.735Z,96.56
2023-04-05T05:30:51.791Z,96.33
2023-04-05T05:31:51.728Z,96.41
2023-04-05T05:32:51.742Z,96.75
2023-04-05T05:33:51.699Z,97.56
2023-04-05T05:34:51.778Z,97.22
2023-04-05T05:35:51.773Z,95.83
2023-04-05T05:36:51.762Z,94.39
2023-04-05T05:37:51.668Z,90.70
2023-04-05T05:38:51.926Z,85.19
2023-04-05T05:39:51.731Z,84.90
2023-04-05T05:40:51.629Z,85.65
2023-04-05T05:41:51.616Z,82.15
2023-04-05T05:42:51.653Z,79.06
2023-04-05T05:43:51.851Z,77.16
2023-04-05T05:44:51.812Z,74.40
2023-04-05T05:45:51.707Z,73.57
2023-04-05T05:46:51.608Z,74.26
2023-04-05T05:47:51.632Z,75.29
2023-04-05T05:48:51.582Z,74.84
2023-04-05T05:49:52.281Z,75.15
2023-04-05T05:50:51.627Z,75.29
2023-04-05T05:51:51.584Z,73.36
2023-04-05T05:52:51.539Z,72.67
2023-04-05T05:53:51.565Z,72.77
2023-04-05T05:54:51.562Z,72.88
2023-04-05T05:55:51.515Z,69.77
2023-04-05T05:56:51.670Z,69.74
2023-04-05T05:57:51.526Z,69.32
2023-04-05T05:58:51.806Z,70.64
2023-04-05T05:59:51.498Z,68.46
2023-04-05T06:00:51.516Z,68.15
2023-04-05T06:01:51.464Z,67.82
2023-04-05T06:02:51.600Z,66.94
2023-04-05T06:03:52.513Z,69.67
2023-04-05T06:04:51.483Z,70.50
2023-04-05T06:05:51.454Z,69.09
2023-04-05T06:06:51.949Z,66.10
2023-04-05T06:07:51.653Z,66.00
2023-04-05T06:08:51.531Z,67.99
2023-04-05T06:09:51.421Z,67.47
2023-04-05T06:10:51.400Z,66.51
2023-04-05T06:11:56.270Z,66.45
2023-04-05T06:12:52.429Z,65.76
2023-04-05T06:13:51.405Z,66.24
2023-04-05T06:14:52.363Z,66.27
2023-04-05T06:15:51.414Z,66.00
2023-04-05T06:16:51.361Z,66.33
2023-04-05T06:17:51.596Z,67.19
2023-04-05T06:18:51.326Z,68.29
2023-04-05T06:19:51.853Z,69.87
2023-04-05T06:20:51.327Z,69.43
2023-04-05T06:21:51.330Z,69.15
2023-04-05T06:22:51.292Z,70.76
2023-04-05T06:23:51.288Z,70.63
2023-04-05T06:24:52.410Z,70.18
2023-04-05T06:25:51.332Z,69.92
2023-04-05T06:26:51.271Z,68.64
2023-04-05T06:27:51.281Z,68.74
2023-04-05T06:28:51.248Z,68.95
2023-04-05T06:29:51.312Z,67.99
2023-04-05T06:30:51.242Z,68.80
2023-04-05T06:31:51.308Z,70.84
2023-04-05T06:32:51.270Z,71.53
2023-04-05T06:33:51.211Z,72.88
2023-04-05T06:34:51.478Z,70.53
2023-04-05T06:35:51.416Z,70.81
2023-04-05T06:36:51.511Z,70.47
2023-04-05T06:37:51.289Z,69.09
2023-04-05T06:38:51.201Z,68.68
2023-04-05T06:39:51.694Z,67.61
2023-04-05T06:40:51.160Z,68.74
2023-04-05T06:41:51.136Z,68.95
2023-04-05T06:42:51.241Z,68.70
2023-04-05T06:43:51.115Z,69.98
2023-04-05T06:44:51.209Z,68.82
2023-04-05T06:45:51.287Z,68.77
2023-04-05T06:46:51.178Z,69.71
2023-04-05T06:47:51.188Z,68.78
2023-04-05T06:48:51.081Z,67.21
2023-04-05T06:49:51.203Z,66.17
2023-04-05T06:50:51.068Z,67.00
2023-04-05T06:51:51.116Z,64.74
2023-04-05T06:52:51.216Z,65.80
2023-04-05T06:53:51.043Z,65.30
2023-04-05T06:54:51.074Z,63.49
2023-04-05T06:55:51.057Z,64.11
2023-04-05T06:56:51.038Z,62.33
2023-04-05T06:57:51.140Z,61.99
2023-04-05T06:58:51.251Z,62.43
2023-04-05T06:59:51.041Z,62.41
2023-04-05T07:00:51.062Z,63.75
2023-04-05T07:01:51.114Z,64.40
2023-04-05T07:02:51.353Z,64.64
2023-04-05T07:03:51.599Z,66.18
2023-04-05T07:04:51.101Z,64.50
2023-04-05T07:06:22.917Z,64.24
2023-04-05T07:06:50.976Z,64.77
2023-04-05T07:07:50.938Z,64.73
2023-04-05T07:08:51.340Z,64.77
2023-04-05T07:09:50.915Z,66.18
2023-04-05T07:10:51.018Z,62.79
2023-04-05T07:11:50.910Z,62.57
2023-04-05T07:12:50.913Z,64.42
2023-04-05T07:13:50.933Z,64.28
2023-04-05T07:14:50.895Z,64.07
2023-04-05T07:15:50.925Z,63.56
2023-04-05T07:16:51.879Z,63.60
2023-04-05T07:17:50.952Z,63.13
2023-04-05T07:18:50.851Z,61.31
2023-04-05T07:19:51.795Z,63.09
2023-04-05T07:20:50.886Z,62.03
2023-04-05T07:21:51.724Z,62.41
2023-04-05T07:22:50.808Z,60.71
2023-04-05T07:23:50.817Z,60.97
2023-04-05T07:24:50.886Z,62.40
2023-04-05T07:25:50.802Z,62.78
2023-04-05T07:26:50.936Z,63.12
2023-04-05T07:27:50.839Z,64.28
2023-04-05T07:28:50.770Z,62.88
2023-04-05T07:29:50.792Z,62.57
2023-04-05T07:30:50.777Z,62.10
2023-04-05T07:31:50.805Z,61.28
2023-04-05T07:32:51.005Z,61.28
2023-04-05T07:33:50.730Z,61.18
2023-04-05T07:34:50.756Z,61.38
2023-04-05T07:35:50.764Z,60.83
2023-04-05T07:36:50.767Z,59.29
2023-04-05T07:37:50.707Z,58.52
2023-04-05T07:38:50.733Z,60.78
2023-04-05T07:39:50.695Z,59.34
2023-04-05T07:40:50.871Z,60.43
2023-04-05T07:41:51.535Z,60.63
2023-04-05T07:42:50.680Z,60.94
2023-04-05T07:43:50.689Z,60.79
2023-04-05T07:44:50.692Z,61.31
2023-04-05T07:45:50.667Z,61.26
2023-04-05T07:46:50.800Z,62.92
2023-04-05T07:47:51.315Z,61.05
2023-04-05T07:48:50.771Z,60.86
2023-04-05T07:49:50.688Z,58.70
2023-04-05T07:50:50.625Z,58.93
2023-04-05T07:51:50.600Z,59.50
2023-04-05T07:52:51.635Z,57.64
2023-04-05T07:53:50.577Z,57.98
2023-04-05T07:54:50.570Z,58.16
2023-04-05T07:55:50.586Z,57.39
2023-04-05T07:56:50.595Z,56.98
2023-04-05T07:57:50.576Z,56.85
2023-04-05T07:58:50.590Z,56.26
2023-04-05T07:59:50.543Z,55.00
2023-04-05T08:00:50.527Z,54.46
2023-04-05T08:01:50.527Z,56.00
2023-04-05T08:02:50.588Z,54.21
2023-04-05T08:03:51.566Z,53.56
2023-04-05T08:04:51.330Z,52.77
2023-04-05T08:05:50.476Z,52.80
2023-04-05T08:06:51.804Z,53.56
2023-04-05T08:07:50.536Z,53.15
2023-04-05T08:08:50.583Z,53.97
2023-04-05T08:09:50.641Z,53.87
2023-04-05T08:10:50.534Z,55.10
2023-04-05T08:11:50.464Z,54.97
2023-04-05T08:12:50.892Z,53.46
2023-04-05T08:13:50.479Z,51.88
2023-04-05T08:14:50.437Z,52.31
2023-04-05T08:15:51.431Z,53.97
2023-04-05T08:16:50.430Z,54.13
2023-04-05T08:17:50.481Z,52.62
2023-04-05T08:18:50.421Z,51.34
2023-04-05T08:19:50.380Z,52.52
2023-04-05T08:20:50.374Z,51.45
2023-04-05T08:21:50.394Z,51.73
2023-04-05T08:22:50.396Z,52.03
2023-04-05T08:23:51.312Z,54.31
2023-04-05T08:24:50.511Z,53.23
2023-04-05T08:25:51.148Z,50.63
2023-04-05T08:26:50.392Z,49.79
2023-04-05T08:27:51.226Z,47.75
2023-04-05T08:28:50.332Z,46.73
2023-04-05T08:29:50.840Z,47.11
2023-04-05T08:30:50.359Z,47.75
2023-04-05T08:31:51.419Z,47.55
2023-04-05T08:32:51.022Z,49.07
2023-04-05T08:33:50.381Z,48.33
2023-04-05T08:34:51.343Z,46.62
2023-04-05T08:35:50.360Z,48.02
2023-04-05T08:36:50.256Z,46.66
2023-04-05T08:37:51.221Z,45.65
2023-04-05T08:38:50.795Z,48.26
2023-04-05T08:39:50.362Z,46.36
2023-04-05T08:40:50.826Z,45.38
2023-04-05T08:41:50.723Z,43.24
2023-04-05T08:42:50.213Z,44.37
2023-04-05T08:43:50.844Z,45.74
2023-04-05T08:44:50.221Z,48.24
2023-04-05T08:45:50.438Z,46.62
2023-04-05T08:46:50.172Z,46.26
2023-04-05T08:47:51.184Z,43.16
2023-04-05T08:48:50.238Z,41.28
2023-04-05T08:49:50.154Z,42.35
2023-04-05T08:50:50.739Z,43.16
2023-04-05T08:51:50.857Z,42.16
2023-04-05T08:52:50.157Z,44.49
2023-04-05T08:53:50.838Z,44.22
2023-04-05T08:54:50.909Z,43.53
2023-04-05T08:55:51.415Z,45.20
2023-04-05T08:56:50.809Z,45.86
2023-04-05T08:57:50.839Z,44.24
2023-04-05T08:58:50.105Z,42.68
2023-04-05T08:59:50.111Z,43.65
2023-04-05T09:00:52.910Z,44.90
2023-04-05T09:01:50.161Z,46.97
2023-04-05T09:02:50.147Z,47.94
2023-04-05T09:03:50.116Z,47.49
2023-04-05T09:04:50.062Z,45.78
2023-04-05T09:05:50.691Z,45.53
2023-04-05T09:06:50.063Z,45.72
2023-04-05T09:07:50.017Z,46.75
2023-04-05T09:08:50.821Z,48.74
2023-04-05T09:09:50.019Z,47.88
2023-04-05T09:10:50.010Z,47.11
2023-04-05T09:11:50.037Z,46.62
2023-04-05T09:12:52.618Z,46.39
2023-04-05T09:13:50.025Z,46.21
2023-04-05T09:14:49.991Z,45.29
2023-04-05T09:15:49.961Z,44.22
2023-04-05T09:16:50.020Z,44.81
2023-04-05T09:17:49.954Z,45.67
2023-04-05T09:18:49.952Z,45.17
2023-04-05T09:19:49.952Z,46.06
2023-04-05T09:20:49.971Z,44.45
2023-04-05T09:21:49.982Z,45.88
2023-04-05T09:22:50.706Z,43.77
2023-04-05T09:23:49.886Z,45.72
2023-04-05T09:25:22.800Z,45.82
2023-04-05T09:25:53.350Z,45.74
2023-04-05T09:26:51.880Z,46.15
2023-04-05T09:27:49.900Z,46.48
2023-04-05T09:28:49.887Z,45.15
2023-04-05T09:29:49.859Z,45.70
2023-04-05T09:30:49.882Z,47.26
2023-04-05T09:31:49.901Z,46.40
2023-04-05T09:32:50.078Z,47.71
2023-04-05T09:33:49.814Z,46.89
2023-04-05T09:34:53.293Z,44.10
2023-04-05T09:35:50.516Z,46.11
2023-04-05T09:36:59.262Z,47.42
2023-04-05T09:37:49.861Z,46.31
2023-04-05T09:38:50.739Z,46.05
2023-04-05T09:39:49.844Z,46.46
2023-04-05T09:40:50.502Z,47.13
2023-04-05T09:41:49.786Z,45.39
2023-04-05T09:42:49.807Z,44.81
2023-04-05T09:43:49.775Z,43.24
2023-04-05T09:44:49.768Z,42.14
2023-04-05T09:45:49.817Z,41.14
2023-04-05T09:46:49.767Z,42.76
2023-04-05T09:47:50.162Z,43.84
2023-04-05T09:48:50.754Z,45.21
2023-04-05T09:49:49.737Z,47.34
2023-04-05T09:50:49.848Z,44.86
2023-04-05T09:51:49.730Z,45.64
2023-04-05T09:52:49.796Z,46.37
2023-04-05T09:53:49.720Z,46.17
2023-04-05T09:54:49.751Z,45.84
2023-04-05T09:55:50.564Z,45.86
2023-04-05T09:56:49.714Z,46.71
2023-04-05T09:57:49.726Z,47.30
2023-04-05T09:58:49.998Z,47.88
2023-04-05T09:59:49.721Z,46.07
2023-04-05T10:00:51.486Z,45.72
2023-04-05T10:01:50.446Z,44.90
2023-04-05T10:02:49.774Z,45.10
2023-04-05T10:03:49.761Z,44.14
2023-04-05T10:04:49.630Z,44.76
2023-04-05T10:05:49.589Z,45.63
2023-04-05T10:06:49.654Z,42.06
2023-04-05T10:07:49.595Z,42.77
2023-04-05T10:08:50.705Z,43.41
2023-04-05T10:09:52.673Z,43.57
2023-04-05T10:10:49.585Z,43.14
2023-04-05T10:11:52.341Z,42.10
2023-04-05T10:12:51.896Z,42.68
2023-04-05T10:13:49.785Z,41.19
2023-04-05T10:14:49.634Z,40.37
2023-04-05T10:15:49.517Z,38.36
2023-04-05T10:16:49.668Z,40.53
2023-04-05T10:17:49.746Z,40.23
2023-04-05T10:18:49.509Z,41.41
2023-04-05T10:19:49.503Z,42.36
2023-04-05T10:20:49.539Z,43.79
2023-04-05T10:21:49.527Z,44.29
2023-04-05T10:22:49.486Z,45.31
2023-04-05T10:23:50.334Z,45.47
2023-04-05T10:24:49.439Z,45.64
2023-04-05T10:25:51.742Z,44.26
2023-04-05T10:26:49.442Z,43.24
2023-04-05T10:27:49.474Z,43.90
2023-04-05T10:28:49.482Z,45.84
2023-04-05T10:29:49.684Z,45.97
2023-04-05T10:30:49.466Z,46.07
2023-04-05T10:31:49.503Z,46.39
2023-04-05T10:32:49.579Z,46.19
2023-04-05T10:33:49.993Z,45.57
2023-04-05T10:34:49.389Z,44.51
2023-04-05T10:35:49.375Z,45.04
2023-04-05T10:36:49.519Z,45.83
2023-04-05T10:37:49.958Z,46.62
2023-04-05T10:38:49.420Z,46.69
2023-04-05T10:39:49.455Z,46.54
2023-04-05T10:40:49.356Z,46.35
2023-04-05T10:41:50.284Z,44.17
2023-04-05T10:42:49.365Z,43.43
2023-04-05T10:43:49.357Z,42.00
2023-04-05T10:44:49.369Z,43.61
2023-04-05T10:45:49.326Z,43.61
2023-04-05T10:46:49.458Z,43.71
2023-04-05T10:47:49.367Z,43.84
2023-04-05T10:48:49.318Z,43.91
2023-04-05T10:49:49.406Z,47.33
2023-04-05T10:50:49.299Z,47.67
2023-04-05T10:51:49.864Z,46.96
2023-04-05T10:52:49.266Z,47.55
2023-04-05T10:53:50.413Z,48.47
2023-04-05T10:54:50.273Z,45.47
2023-04-05T10:55:49.213Z,45.06
2023-04-05T10:56:49.215Z,45.86
2023-04-05T10:57:49.221Z,46.07
2023-04-05T10:58:49.248Z,45.45
2023-04-05T10:59:49.355Z,45.04
2023-04-05T11:00:49.582Z,44.12
2023-04-05T11:01:49.228Z,44.26
2023-04-05T11:02:49.212Z,45.37
2023-04-05T11:03:49.287Z,45.54
2023-04-05T11:04:50.063Z,46.67
2023-04-05T11:05:49.208Z,47.41
2023-04-05T11:06:49.140Z,48.09
2023-04-05T11:07:49.112Z,48.79
2023-04-05T11:08:49.407Z,47.45
2023-04-05T11:09:49.170Z,47.55
2023-04-05T11:10:50.014Z,48.21
2023-04-05T11:11:49.136Z,49.84
2023-04-05T11:12:49.117Z,48.58
2023-04-05T11:14:21.022Z,48.13
2023-04-05T11:14:49.955Z,47.67
2023-04-05T11:15:49.116Z,46.44
2023-04-05T11:16:49.093Z,46.36
2023-04-05T11:17:49.064Z,46.15
2023-04-05T11:18:49.036Z,46.54
2023-04-05T11:19:50.288Z,46.93
2023-04-05T11:20:49.003Z,46.56
2023-04-05T11:21:49.495Z,46.25
2023-04-05T11:22:49.019Z,46.73
2023-04-05T11:23:48.990Z,46.88
2023-04-05T11:24:48.991Z,47.29
2023-04-05T11:25:51.550Z,46.65
2023-04-05T11:26:49.116Z,45.99
2023-04-05T11:27:49.994Z,45.89
2023-04-05T11:28:49.990Z,46.28
2023-04-05T11:29:48.931Z,45.80
2023-04-05T11:30:50.400Z,44.65
2023-04-05T11:31:49.968Z,45.52
2023-04-05T11:32:49.995Z,46.09
2023-04-05T11:33:55.739Z,44.74
2023-04-05T11:34:50.897Z,44.18
2023-04-05T11:35:48.912Z,44.00
2023-04-05T11:36:49.028Z,45.31
2023-04-05T11:37:48.906Z,45.97
2023-04-05T11:38:48.863Z,42.85
2023-04-05T11:39:48.867Z,43.47
2023-04-05T11:40:48.853Z,44.51
2023-04-05T11:41:48.878Z,44.47
2023-04-05T11:42:49.527Z,43.43
2023-04-05T11:43:48.832Z,42.81
2023-04-05T11:44:48.857Z,42.57
2023-04-05T11:45:48.901Z,43.55
2023-04-05T11:46:49.011Z,41.96
2023-04-05T11:47:48.918Z,42.08
2023-04-05T11:48:48.818Z,42.71
2023-04-05T11:49:49.481Z,41.89
2023-04-05T11:50:48.846Z,42.30
2023-04-05T11:51:48.767Z,41.83
2023-04-05T11:52:50.537Z,43.91
2023-04-05T11:53:48.793Z,43.65
2023-04-05T11:54:49.481Z,44.12
2023-04-05T11:55:48.730Z,42.65
2023-04-05T11:56:48.734Z,41.73
2023-04-05T11:57:48.712Z,41.82
2023-04-05T11:58:48.850Z,42.22
2023-04-05T11:59:49.503Z,41.71
2023-04-05T12:00:49.452Z,42.88
2023-04-05T12:01:48.666Z,42.69
2023-04-05T12:02:48.751Z,42.30
2023-04-05T12:03:48.757Z,43.10
2023-04-05T12:04:48.782Z,43.55
2023-04-05T12:05:48.641Z,41.80
2023-04-05T12:06:48.641Z,43.35
2023-04-05T12:07:48.637Z,41.53
2023-04-05T12:08:49.146Z,42.18
2023-04-05T12:09:50.413Z,43.00
2023-04-05T12:10:48.680Z,42.02
2023-04-05T12:11:48.719Z,40.57
2023-04-05T12:12:48.573Z,40.98
2023-04-05T12:13:48.595Z,42.37
2023-04-05T12:14:48.568Z,40.82
2023-04-05T12:15:48.579Z,41.02
2023-04-05T12:16:48.679Z,39.53
2023-04-05T12:17:48.577Z,43.94
2023-04-05T12:18:48.565Z,43.38
2023-04-05T12:19:48.524Z,42.22
2023-04-05T12:20:48.549Z,42.43
2023-04-05T12:21:48.528Z,42.00
2023-04-05T12:22:48.591Z,42.39
2023-04-05T12:23:48.549Z,41.63
2023-04-05T12:24:48.505Z,39.80
2023-04-05T12:25:49.517Z,39.89
2023-04-05T12:26:48.499Z,40.39
2023-04-05T12:27:49.476Z,40.17
2023-04-05T12:28:48.501Z,38.76
2023-04-05T12:29:48.610Z,37.56
2023-04-05T12:30:48.454Z,39.28
2023-04-05T12:31:48.505Z,39.28
2023-04-05T12:32:49.410Z,41.70
2023-04-05T12:33:48.585Z,40.27
2023-04-05T12:34:49.449Z,39.97
2023-04-05T12:35:48.459Z,40.80
2023-04-05T12:36:48.426Z,40.70
2023-04-05T12:37:48.398Z,40.48
2023-04-05T12:38:50.198Z,39.56
2023-04-05T12:39:48.401Z,40.17
2023-04-05T12:40:48.373Z,39.69
2023-04-05T12:41:48.378Z,40.82
2023-04-05T12:42:48.365Z,40.01
2023-04-05T12:43:48.359Z,39.82
2023-04-05T12:44:48.347Z,41.80
2023-04-05T12:45:48.381Z,42.30
2023-04-05T12:46:48.440Z,40.28
2023-04-05T12:47:48.331Z,41.42
2023-04-05T12:48:48.332Z,41.63
2023-04-05T12:49:48.915Z,42.06
2023-04-05T12:50:48.520Z,41.85
2023-04-05T12:51:48.354Z,42.20
2023-04-05T12:52:48.297Z,43.91
2023-04-05T12:53:48.309Z,42.08
2023-04-05T12:54:48.272Z,41.97
2023-04-05T12:55:49.113Z,41.18
2023-04-05T12:56:48.278Z,42.34
2023-04-05T12:57:48.239Z,44.96
2023-04-05T12:58:49.038Z,42.16
2023-04-05T12:59:48.235Z,42.04
2023-04-05T13:00:48.911Z,40.67
2023-04-05T13:01:48.301Z,41.82
2023-04-05T13:02:48.299Z,42.08
2023-04-05T13:03:49.703Z,41.14
2023-04-05T13:04:49.217Z,40.17
2023-04-05T13:05:48.326Z,41.57
2023-04-05T13:06:48.196Z,41.78
2023-04-05T13:07:49.014Z,40.92